sensor_id;sensor_type;location;lat;lon;timestamp;P1;durP1;ratioP1;P2;durP2;ratioP2
26488;SDS011;14169;43.684;10.484;2022-11-15T00:00:17;13.77;;;12.48;;
26488;SDS011;14169;43.684;10.484;2022-11-15T00:02:42;13.23;;;11.82;;
26488;SDS011;14169;43.684;10.484;2022-11-15T00:05:08;15.68;;;12.10;;
26488;SDS011;14169;43.684;10.484;2022-11-15T00:07:33;12.65;;;11.35;;
26488;SDS011;14169;43.684;10.484;2022-11-15T00:09:59;12.18;;;11.18;;
26488;SDS011;14169;43.684;10.484;2022-11-15T00:12:26;14.48;;;12.55;;
26488;SDS011;14169;43.684;10.484;2022-11-15T00:14:52;13.48;;;12.27;;
26488;SDS011;14169;43.684;10.484;2022-11-15T00:17:18;13.77;;;12.57;;
26488;SDS011;14169;43.684;10.484;2022-11-15T00:19:43;11.82;;;10.77;;
26488;SDS011;14169;43.684;10.484;2022-11-15T00:22:09;10.82;;;9.77;;
26488;SDS011;14169;43.684;10.484;2022-11-15T00:24:34;11.02;;;10.07;;
26488;SDS011;14169;43.684;10.484;2022-11-15T00:26:59;12.80;;;11.70;;
26488;SDS011;14169;43.684;10.484;2022-11-15T00:29:25;13.35;;;11.90;;
26488;SDS011;14169;43.684;10.484;2022-11-15T00:31:50;13.88;;;12.10;;
26488;SDS011;14169;43.684;10.484;2022-11-15T00:34:15;15.13;;;13.68;;
26488;SDS011;14169;43.684;10.484;2022-11-15T00:36:41;15.45;;;14.05;;
26488;SDS011;14169;43.684;10.484;2022-11-15T00:39:06;15.52;;;14.05;;
26488;SDS011;14169;43.684;10.484;2022-11-15T00:41:32;15.73;;;13.65;;
26488;SDS011;14169;43.684;10.484;2022-11-15T00:43:57;16.73;;;15.18;;
26488;SDS011;14169;43.684;10.484;2022-11-15T00:46:22;16.90;;;15.30;;
26488;SDS011;14169;43.684;10.484;2022-11-15T00:48:48;17.27;;;15.50;;
26488;SDS011;14169;43.684;10.484;2022-11-15T00:51:13;17.08;;;15.48;;
26488;SDS011;14169;43.684;10.484;2022-11-15T00:53:38;18.00;;;16.13;;
26488;SDS011;14169;43.684;10.484;2022-11-15T00:56:04;17.98;;;16.08;;
26488;SDS011;14169;43.684;10.484;2022-11-15T00:58:29;17.20;;;15.38;;
26488;SDS011;14169;43.684;10.484;2022-11-15T01:00:55;19.05;;;17.08;;
26488;SDS011;14169;43.684;10.484;2022-11-15T01:03:20;22.40;;;17.60;;
26488;SDS011;14169;43.684;10.484;2022-11-15T01:05:46;20.73;;;18.63;;
26488;SDS011;14169;43.684;10.484;2022-11-15T01:08:15;18.70;;;16.90;;
26488;SDS011;14169;43.684;10.484;2022-11-15T01:10:41;19.52;;;17.52;;
26488;SDS011;14169;43.684;10.484;2022-11-15T01:13:07;18.80;;;16.75;;
26488;SDS011;14169;43.684;10.484;2022-11-15T01:15:33;19.30;;;15.80;;
26488;SDS011;14169;43.684;10.484;2022-11-15T01:18:03;17.95;;;16.35;;
26488;SDS011;14169;43.684;10.484;2022-11-15T01:20:28;18.10;;;16.23;;
26488;SDS011;14169;43.684;10.484;2022-11-15T01:22:54;17.52;;;15.65;;
26488;SDS011;14169;43.684;10.484;2022-11-15T01:25:19;16.92;;;15.23;;
26488;SDS011;14169;43.684;10.484;2022-11-15T01:27:45;16.98;;;15.35;;
26488;SDS011;14169;43.684;10.484;2022-11-15T01:30:10;16.60;;;15.05;;
26488;SDS011;14169;43.684;10.484;2022-11-15T01:32:36;18.17;;;16.48;;
26488;SDS011;14169;43.684;10.484;2022-11-15T01:35:01;18.85;;;16.90;;
26488;SDS011;14169;43.684;10.484;2022-11-15T01:37:27;18.17;;;16.27;;
26488;SDS011;14169;43.684;10.484;2022-11-15T01:39:52;18.23;;;16.40;;
26488;SDS011;14169;43.684;10.484;2022-11-15T01:42:17;18.13;;;16.23;;
26488;SDS011;14169;43.684;10.484;2022-11-15T01:44:44;18.40;;;16.67;;
26488;SDS011;14169;43.684;10.484;2022-11-15T01:49:38;19.60;;;17.52;;
26488;SDS011;14169;43.684;10.484;2022-11-15T01:52:09;40.15;;;24.80;;
26488;SDS011;14169;43.684;10.484;2022-11-15T01:54:38;32.88;;;21.50;;
26488;SDS011;14169;43.684;10.484;2022-11-15T01:57:06;25.30;;;18.17;;
26488;SDS011;14169;43.684;10.484;2022-11-15T01:59:34;18.35;;;15.38;;
26488;SDS011;14169;43.684;10.484;2022-11-15T02:02:03;16.88;;;14.95;;
26488;SDS011;14169;43.684;10.484;2022-11-15T02:04:29;21.58;;;17.30;;
26488;SDS011;14169;43.684;10.484;2022-11-15T02:06:57;19.52;;;17.60;;
26488;SDS011;14169;43.684;10.484;2022-11-15T02:09:25;19.90;;;16.27;;
26488;SDS011;14169;43.684;10.484;2022-11-15T02:11:50;18.60;;;16.73;;
26488;SDS011;14169;43.684;10.484;2022-11-15T02:14:17;20.13;;;16.48;;
26488;SDS011;14169;43.684;10.484;2022-11-15T02:24:47;15.05;;;13.65;;
26488;SDS011;14169;43.684;10.484;2022-11-15T02:33:42;13.73;;;12.52;;
26488;SDS011;14169;43.684;10.484;2022-11-15T02:41:31;11.27;;;10.38;;
26488;SDS011;14169;43.684;10.484;2022-11-15T02:44:02;10.68;;;9.75;;
26488;SDS011;14169;43.684;10.484;2022-11-15T02:46:37;11.00;;;10.02;;
26488;SDS011;14169;43.684;10.484;2022-11-15T02:49:26;10.68;;;9.73;;
26488;SDS011;14169;43.684;10.484;2022-11-15T02:51:55;10.95;;;10.05;;
26488;SDS011;14169;43.684;10.484;2022-11-15T02:54:25;10.20;;;9.38;;
26488;SDS011;14169;43.684;10.484;2022-11-15T02:56:54;15.15;;;13.43;;
26488;SDS011;14169;43.684;10.484;2022-11-15T03:12:08;8.23;;;7.53;;
26488;SDS011;14169;43.684;10.484;2022-11-15T03:14:46;7.85;;;7.25;;
26488;SDS011;14169;43.684;10.484;2022-11-15T03:17:25;9.80;;;8.30;;
26488;SDS011;14169;43.684;10.484;2022-11-15T03:19:55;10.07;;;9.27;;
26488;SDS011;14169;43.684;10.484;2022-11-15T03:22:24;11.20;;;10.20;;
26488;SDS011;14169;43.684;10.484;2022-11-15T03:24:57;12.18;;;10.90;;
26488;SDS011;14169;43.684;10.484;2022-11-15T03:27:26;12.88;;;11.60;;
26488;SDS011;14169;43.684;10.484;2022-11-15T03:29:58;10.90;;;9.90;;
26488;SDS011;14169;43.684;10.484;2022-11-15T03:32:29;12.35;;;10.80;;
26488;SDS011;14169;43.684;10.484;2022-11-15T03:34:58;12.15;;;11.05;;
26488;SDS011;14169;43.684;10.484;2022-11-15T03:37:40;11.95;;;10.88;;
26488;SDS011;14169;43.684;10.484;2022-11-15T03:40:06;14.30;;;12.13;;
26488;SDS011;14169;43.684;10.484;2022-11-15T03:42:36;12.70;;;11.60;;
26488;SDS011;14169;43.684;10.484;2022-11-15T03:45:20;13.43;;;12.15;;
26488;SDS011;14169;43.684;10.484;2022-11-15T03:48:11;13.85;;;12.05;;
26488;SDS011;14169;43.684;10.484;2022-11-15T03:50:41;12.13;;;11.05;;
26488;SDS011;14169;43.684;10.484;2022-11-15T03:53:08;11.23;;;10.18;;
26488;SDS011;14169;43.684;10.484;2022-11-15T03:55:35;10.20;;;9.20;;
26488;SDS011;14169;43.684;10.484;2022-11-15T03:58:00;10.80;;;9.82;;
26488;SDS011;14169;43.684;10.484;2022-11-15T04:00:26;10.32;;;9.32;;
26488;SDS011;14169;43.684;10.484;2022-11-15T04:02:52;7.72;;;7.05;;
26488;SDS011;14169;43.684;10.484;2022-11-15T04:05:18;8.05;;;7.32;;
26488;SDS011;14169;43.684;10.484;2022-11-15T04:07:43;7.80;;;7.15;;
26488;SDS011;14169;43.684;10.484;2022-11-15T04:10:10;9.27;;;8.05;;
26488;SDS011;14169;43.684;10.484;2022-11-15T04:12:37;8.93;;;8.13;;
26488;SDS011;14169;43.684;10.484;2022-11-15T04:15:12;8.75;;;7.25;;
26488;SDS011;14169;43.684;10.484;2022-11-15T04:17:40;8.55;;;7.85;;
26488;SDS011;14169;43.684;10.484;2022-11-15T04:20:08;8.60;;;7.65;;
26488;SDS011;14169;43.684;10.484;2022-11-15T04:23:14;7.97;;;7.22;;
26488;SDS011;14169;43.684;10.484;2022-11-15T04:26:03;13.32;;;8.13;;
26488;SDS011;14169;43.684;10.484;2022-11-15T04:28:30;7.70;;;7.03;;
26488;SDS011;14169;43.684;10.484;2022-11-15T04:30:56;9.02;;;8.23;;
26488;SDS011;14169;43.684;10.484;2022-11-15T04:33:22;8.73;;;7.93;;
26488;SDS011;14169;43.684;10.484;2022-11-15T04:35:47;8.52;;;7.75;;
26488;SDS011;14169;43.684;10.484;2022-11-15T04:38:33;9.00;;;8.02;;
26488;SDS011;14169;43.684;10.484;2022-11-15T04:40:59;9.50;;;8.60;;
26488;SDS011;14169;43.684;10.484;2022-11-15T04:43:25;8.82;;;7.90;;
26488;SDS011;14169;43.684;10.484;2022-11-15T04:45:51;9.23;;;8.43;;
26488;SDS011;14169;43.684;10.484;2022-11-15T04:48:16;10.07;;;8.90;;
26488;SDS011;14169;43.684;10.484;2022-11-15T04:50:42;10.07;;;9.05;;
26488;SDS011;14169;43.684;10.484;2022-11-15T04:53:07;8.30;;;7.60;;
26488;SDS011;14169;43.684;10.484;2022-11-15T04:55:32;9.55;;;8.65;;
26488;SDS011;14169;43.684;10.484;2022-11-15T04:57:58;9.07;;;8.18;;
26488;SDS011;14169;43.684;10.484;2022-11-15T05:00:25;10.07;;;9.18;;
26488;SDS011;14169;43.684;10.484;2022-11-15T05:02:52;9.75;;;8.95;;
26488;SDS011;14169;43.684;10.484;2022-11-15T05:05:36;10.15;;;9.35;;
26488;SDS011;14169;43.684;10.484;2022-11-15T05:08:01;10.00;;;9.10;;
26488;SDS011;14169;43.684;10.484;2022-11-15T05:10:27;9.40;;;8.48;;
26488;SDS011;14169;43.684;10.484;2022-11-15T05:12:52;8.45;;;7.65;;
26488;SDS011;14169;43.684;10.484;2022-11-15T05:15:18;7.88;;;7.18;;
26488;SDS011;14169;43.684;10.484;2022-11-15T05:17:43;8.43;;;7.72;;
26488;SDS011;14169;43.684;10.484;2022-11-15T05:20:09;7.60;;;6.90;;
26488;SDS011;14169;43.684;10.484;2022-11-15T05:22:35;7.82;;;7.13;;
26488;SDS011;14169;43.684;10.484;2022-11-15T05:25:00;7.47;;;6.88;;
26488;SDS011;14169;43.684;10.484;2022-11-15T05:27:25;7.47;;;6.78;;
26488;SDS011;14169;43.684;10.484;2022-11-15T05:29:51;6.50;;;5.90;;
26488;SDS011;14169;43.684;10.484;2022-11-15T05:32:16;7.05;;;6.35;;
26488;SDS011;14169;43.684;10.484;2022-11-15T05:34:43;8.27;;;5.88;;
26488;SDS011;14169;43.684;10.484;2022-11-15T05:37:08;6.47;;;5.88;;
26488;SDS011;14169;43.684;10.484;2022-11-15T05:39:34;6.78;;;5.65;;
26488;SDS011;14169;43.684;10.484;2022-11-15T05:44:39;5.35;;;4.85;;
26488;SDS011;14169;43.684;10.484;2022-11-15T05:47:08;6.45;;;5.55;;
26488;SDS011;14169;43.684;10.484;2022-11-15T05:49:37;6.93;;;6.32;;
26488;SDS011;14169;43.684;10.484;2022-11-15T05:52:07;6.93;;;6.32;;
26488;SDS011;14169;43.684;10.484;2022-11-15T05:54:35;14.57;;;5.88;;
26488;SDS011;14169;43.684;10.484;2022-11-15T05:57:01;6.15;;;5.65;;
26488;SDS011;14169;43.684;10.484;2022-11-15T05:59:29;6.18;;;5.68;;
26488;SDS011;14169;43.684;10.484;2022-11-15T06:01:56;6.28;;;5.78;;
26488;SDS011;14169;43.684;10.484;2022-11-15T06:04:21;7.03;;;6.43;;
26488;SDS011;14169;43.684;10.484;2022-11-15T06:06:47;6.47;;;5.78;;
26488;SDS011;14169;43.684;10.484;2022-11-15T06:09:12;5.65;;;5.15;;
26488;SDS011;14169;43.684;10.484;2022-11-15T06:11:38;5.28;;;4.78;;
26488;SDS011;14169;43.684;10.484;2022-11-15T06:14:03;7.13;;;5.18;;
26488;SDS011;14169;43.684;10.484;2022-11-15T06:16:28;5.53;;;5.03;;
26488;SDS011;14169;43.684;10.484;2022-11-15T06:18:54;6.07;;;5.20;;
26488;SDS011;14169;43.684;10.484;2022-11-15T06:21:19;5.45;;;4.95;;
26488;SDS011;14169;43.684;10.484;2022-11-15T06:23:45;5.38;;;4.88;;
26488;SDS011;14169;43.684;10.484;2022-11-15T06:26:10;5.88;;;5.30;;
26488;SDS011;14169;43.684;10.484;2022-11-15T06:28:36;6.03;;;5.53;;
26488;SDS011;14169;43.684;10.484;2022-11-15T06:31:05;6.30;;;5.70;;
26488;SDS011;14169;43.684;10.484;2022-11-15T06:33:32;6.45;;;5.90;;
26488;SDS011;14169;43.684;10.484;2022-11-15T06:36:01;6.22;;;5.57;;
26488;SDS011;14169;43.684;10.484;2022-11-15T06:38:31;5.57;;;5.03;;
26488;SDS011;14169;43.684;10.484;2022-11-15T06:41:07;5.93;;;5.32;;
26488;SDS011;14169;43.684;10.484;2022-11-15T06:43:34;5.70;;;5.07;;
26488;SDS011;14169;43.684;10.484;2022-11-15T06:46:01;5.88;;;5.32;;
26488;SDS011;14169;43.684;10.484;2022-11-15T06:48:27;5.30;;;4.88;;
26488;SDS011;14169;43.684;10.484;2022-11-15T06:50:54;6.32;;;5.70;;
26488;SDS011;14169;43.684;10.484;2022-11-15T06:53:21;5.68;;;5.18;;
26488;SDS011;14169;43.684;10.484;2022-11-15T06:55:47;5.57;;;5.07;;
26488;SDS011;14169;43.684;10.484;2022-11-15T06:58:12;5.82;;;5.28;;
26488;SDS011;14169;43.684;10.484;2022-11-15T07:00:38;9.32;;;5.47;;
26488;SDS011;14169;43.684;10.484;2022-11-15T07:03:04;6.00;;;4.65;;
26488;SDS011;14169;43.684;10.484;2022-11-15T07:05:29;5.43;;;4.97;;
26488;SDS011;14169;43.684;10.484;2022-11-15T07:07:55;5.50;;;5.05;;
26488;SDS011;14169;43.684;10.484;2022-11-15T07:10:22;6.97;;;5.20;;
26488;SDS011;14169;43.684;10.484;2022-11-15T07:12:50;6.25;;;5.65;;
26488;SDS011;14169;43.684;10.484;2022-11-15T07:15:21;9.57;;;5.68;;
26488;SDS011;14169;43.684;10.484;2022-11-15T07:17:48;7.45;;;5.10;;
26488;SDS011;14169;43.684;10.484;2022-11-15T07:20:14;5.15;;;4.65;;
26488;SDS011;14169;43.684;10.484;2022-11-15T07:22:40;5.22;;;4.72;;
26488;SDS011;14169;43.684;10.484;2022-11-15T07:25:06;7.45;;;4.80;;
26488;SDS011;14169;43.684;10.484;2022-11-15T07:27:32;4.45;;;4.03;;
26488;SDS011;14169;43.684;10.484;2022-11-15T07:29:57;5.03;;;4.13;;
26488;SDS011;14169;43.684;10.484;2022-11-15T07:32:22;4.97;;;4.55;;
26488;SDS011;14169;43.684;10.484;2022-11-15T07:34:48;4.68;;;4.28;;
26488;SDS011;14169;43.684;10.484;2022-11-15T07:37:13;5.05;;;4.55;;
26488;SDS011;14169;43.684;10.484;2022-11-15T07:39:39;5.13;;;4.63;;
26488;SDS011;14169;43.684;10.484;2022-11-15T07:42:04;4.88;;;4.40;;
26488;SDS011;14169;43.684;10.484;2022-11-15T07:44:48;5.78;;;5.28;;
26488;SDS011;14169;43.684;10.484;2022-11-15T07:47:14;5.00;;;4.50;;
26488;SDS011;14169;43.684;10.484;2022-11-15T07:49:39;4.78;;;4.25;;
26488;SDS011;14169;43.684;10.484;2022-11-15T07:52:05;5.90;;;4.47;;
26488;SDS011;14169;43.684;10.484;2022-11-15T07:54:30;5.47;;;4.97;;
26488;SDS011;14169;43.684;10.484;2022-11-15T07:56:55;4.45;;;3.90;;
26488;SDS011;14169;43.684;10.484;2022-11-15T07:59:21;4.32;;;3.92;;
26488;SDS011;14169;43.684;10.484;2022-11-15T08:01:46;4.22;;;3.90;;
26488;SDS011;14169;43.684;10.484;2022-11-15T08:04:11;4.65;;;4.25;;
26488;SDS011;14169;43.684;10.484;2022-11-15T08:06:37;5.57;;;5.10;;
26488;SDS011;14169;43.684;10.484;2022-11-15T08:09:03;5.85;;;4.28;;
26488;SDS011;14169;43.684;10.484;2022-11-15T08:11:28;4.57;;;4.13;;
26488;SDS011;14169;43.684;10.484;2022-11-15T08:13:54;5.28;;;4.78;;
26488;SDS011;14169;43.684;10.484;2022-11-15T08:16:19;5.68;;;5.13;;
26488;SDS011;14169;43.684;10.484;2022-11-15T08:18:45;5.20;;;4.70;;
26488;SDS011;14169;43.684;10.484;2022-11-15T08:21:11;4.57;;;4.07;;
26488;SDS011;14169;43.684;10.484;2022-11-15T08:23:39;5.65;;;4.65;;
26488;SDS011;14169;43.684;10.484;2022-11-15T08:26:05;4.95;;;4.43;;
26488;SDS011;14169;43.684;10.484;2022-11-15T08:28:31;5.05;;;4.18;;
26488;SDS011;14169;43.684;10.484;2022-11-15T08:30:57;7.35;;;5.13;;
26488;SDS011;14169;43.684;10.484;2022-11-15T08:33:23;6.05;;;5.07;;
26488;SDS011;14169;43.684;10.484;2022-11-15T08:35:49;6.53;;;4.57;;
26488;SDS011;14169;43.684;10.484;2022-11-15T08:38:15;5.82;;;5.28;;
26488;SDS011;14169;43.684;10.484;2022-11-15T08:40:40;6.35;;;5.28;;
26488;SDS011;14169;43.684;10.484;2022-11-15T08:43:06;6.35;;;5.32;;
26488;SDS011;14169;43.684;10.484;2022-11-15T08:45:32;7.28;;;5.03;;
26488;SDS011;14169;43.684;10.484;2022-11-15T08:48:00;7.93;;;5.57;;
26488;SDS011;14169;43.684;10.484;2022-11-15T08:50:27;6.15;;;5.55;;
26488;SDS011;14169;43.684;10.484;2022-11-15T08:52:52;5.55;;;5.05;;
26488;SDS011;14169;43.684;10.484;2022-11-15T08:55:18;7.00;;;5.63;;
26488;SDS011;14169;43.684;10.484;2022-11-15T08:57:43;5.85;;;5.35;;
26488;SDS011;14169;43.684;10.484;2022-11-15T09:00:09;5.90;;;5.28;;
26488;SDS011;14169;43.684;10.484;2022-11-15T09:02:37;6.00;;;5.50;;
26488;SDS011;14169;43.684;10.484;2022-11-15T09:05:03;5.85;;;5.30;;
26488;SDS011;14169;43.684;10.484;2022-11-15T09:07:29;5.75;;;5.25;;
26488;SDS011;14169;43.684;10.484;2022-11-15T09:09:55;5.63;;;5.13;;
26488;SDS011;14169;43.684;10.484;2022-11-15T09:12:21;5.68;;;5.25;;
26488;SDS011;14169;43.684;10.484;2022-11-15T09:14:46;6.18;;;5.57;;
26488;SDS011;14169;43.684;10.484;2022-11-15T09:17:11;6.38;;;5.70;;
26488;SDS011;14169;43.684;10.484;2022-11-15T09:19:37;5.93;;;5.43;;
26488;SDS011;14169;43.684;10.484;2022-11-15T09:22:05;6.97;;;6.38;;
26488;SDS011;14169;43.684;10.484;2022-11-15T09:24:31;6.47;;;5.53;;
26488;SDS011;14169;43.684;10.484;2022-11-15T09:26:57;5.68;;;5.18;;
26488;SDS011;14169;43.684;10.484;2022-11-15T09:29:22;5.80;;;5.30;;
26488;SDS011;14169;43.684;10.484;2022-11-15T09:31:48;5.45;;;5.05;;
26488;SDS011;14169;43.684;10.484;2022-11-15T09:34:13;6.22;;;5.40;;
26488;SDS011;14169;43.684;10.484;2022-11-15T09:36:38;6.63;;;5.97;;
26488;SDS011;14169;43.684;10.484;2022-11-15T09:39:04;5.95;;;5.45;;
26488;SDS011;14169;43.684;10.484;2022-11-15T09:41:43;5.45;;;4.97;;
26488;SDS011;14169;43.684;10.484;2022-11-15T09:49:45;6.00;;;5.50;;
26488;SDS011;14169;43.684;10.484;2022-11-15T09:52:12;6.22;;;5.70;;
26488;SDS011;14169;43.684;10.484;2022-11-15T09:54:39;5.78;;;5.28;;
26488;SDS011;14169;43.684;10.484;2022-11-15T10:03:19;5.35;;;4.90;;
26488;SDS011;14169;43.684;10.484;2022-11-15T10:05:43;6.00;;;5.50;;
26488;SDS011;14169;43.684;10.484;2022-11-15T10:08:13;7.10;;;5.65;;
26488;SDS011;14169;43.684;10.484;2022-11-15T10:11:00;6.15;;;5.65;;
26488;SDS011;14169;43.684;10.484;2022-11-15T10:16:04;5.53;;;5.03;;
26488;SDS011;14169;43.684;10.484;2022-11-15T10:18:54;7.10;;;5.43;;
26488;SDS011;14169;43.684;10.484;2022-11-15T10:24:38;6.15;;;5.57;;
26488;SDS011;14169;43.684;10.484;2022-11-15T10:27:16;5.93;;;5.32;;
26488;SDS011;14169;43.684;10.484;2022-11-15T10:29:47;5.72;;;5.22;;
26488;SDS011;14169;43.684;10.484;2022-11-15T10:32:15;5.70;;;5.20;;
26488;SDS011;14169;43.684;10.484;2022-11-15T10:34:46;5.55;;;5.05;;
26488;SDS011;14169;43.684;10.484;2022-11-15T10:37:13;5.22;;;4.72;;
26488;SDS011;14169;43.684;10.484;2022-11-15T10:39:38;5.07;;;4.68;;
26488;SDS011;14169;43.684;10.484;2022-11-15T10:44:42;6.10;;;5.60;;
26488;SDS011;14169;43.684;10.484;2022-11-15T10:47:25;6.13;;;5.63;;
26488;SDS011;14169;43.684;10.484;2022-11-15T10:50:01;5.60;;;5.10;;
26488;SDS011;14169;43.684;10.484;2022-11-15T10:52:33;5.63;;;5.13;;
26488;SDS011;14169;43.684;10.484;2022-11-15T10:57:47;5.45;;;4.95;;
26488;SDS011;14169;43.684;10.484;2022-11-15T11:08:02;5.70;;;5.20;;
26488;SDS011;14169;43.684;10.484;2022-11-15T11:12:55;6.13;;;5.55;;
26488;SDS011;14169;43.684;10.484;2022-11-15T11:15:20;5.43;;;4.93;;
26488;SDS011;14169;43.684;10.484;2022-11-15T11:18:10;5.60;;;5.10;;
26488;SDS011;14169;43.684;10.484;2022-11-15T11:20:45;5.35;;;4.95;;
26488;SDS011;14169;43.684;10.484;2022-11-15T11:23:23;5.80;;;5.30;;
26488;SDS011;14169;43.684;10.484;2022-11-15T11:29:02;5.78;;;5.28;;
26488;SDS011;14169;43.684;10.484;2022-11-15T11:50:53;5.03;;;4.63;;
26488;SDS011;14169;43.684;10.484;2022-11-15T11:53:28;5.00;;;4.60;;
26488;SDS011;14169;43.684;10.484;2022-11-15T11:55:58;5.40;;;4.90;;
26488;SDS011;14169;43.684;10.484;2022-11-15T11:58:34;5.13;;;4.63;;
26488;SDS011;14169;43.684;10.484;2022-11-15T12:06:35;6.22;;;5.72;;
26488;SDS011;14169;43.684;10.484;2022-11-15T12:17:00;4.75;;;4.35;;
26488;SDS011;14169;43.684;10.484;2022-11-15T12:19:26;5.28;;;4.82;;
26488;SDS011;14169;43.684;10.484;2022-11-15T12:21:59;6.03;;;5.53;;
26488;SDS011;14169;43.684;10.484;2022-11-15T12:24:34;5.88;;;5.38;;
26488;SDS011;14169;43.684;10.484;2022-11-15T12:29:50;5.85;;;5.35;;
26488;SDS011;14169;43.684;10.484;2022-11-15T12:34:55;6.40;;;5.90;;
26488;SDS011;14169;43.684;10.484;2022-11-15T12:45:47;6.32;;;5.82;;
26488;SDS011;14169;43.684;10.484;2022-11-15T13:04:38;4.60;;;4.20;;
26488;SDS011;14169;43.684;10.484;2022-11-15T13:06:48;5.60;;;5.15;;
26488;SDS011;14169;43.684;10.484;2022-11-15T13:11:59;6.75;;;6.20;;
26488;SDS011;14169;43.684;10.484;2022-11-15T13:14:42;4.85;;;4.22;;
26488;SDS011;14169;43.684;10.484;2022-11-15T13:19:48;4.85;;;4.43;;
26488;SDS011;14169;43.684;10.484;2022-11-15T13:25:27;7.70;;;7.05;;
26488;SDS011;14169;43.684;10.484;2022-11-15T13:27:58;7.60;;;6.90;;
26488;SDS011;14169;43.684;10.484;2022-11-15T13:30:27;6.43;;;5.88;;
26488;SDS011;14169;43.684;10.484;2022-11-15T13:32:54;8.13;;;5.43;;
26488;SDS011;14169;43.684;10.484;2022-11-15T13:35:22;5.28;;;4.85;;
26488;SDS011;14169;43.684;10.484;2022-11-15T13:37:49;6.72;;;6.22;;
26488;SDS011;14169;43.684;10.484;2022-11-15T13:42:52;5.80;;;5.30;;
26488;SDS011;14169;43.684;10.484;2022-11-15T13:45:19;5.35;;;4.95;;
26488;SDS011;14169;43.684;10.484;2022-11-15T13:47:47;5.65;;;5.07;;
26488;SDS011;14169;43.684;10.484;2022-11-15T13:50:17;5.80;;;5.20;;
26488;SDS011;14169;43.684;10.484;2022-11-15T13:52:46;5.93;;;5.38;;
26488;SDS011;14169;43.684;10.484;2022-11-15T13:55:14;4.72;;;4.30;;
26488;SDS011;14169;43.684;10.484;2022-11-15T13:57:51;5.45;;;4.95;;
26488;SDS011;14169;43.684;10.484;2022-11-15T14:02:54;6.28;;;5.78;;
26488;SDS011;14169;43.684;10.484;2022-11-15T14:05:22;5.85;;;5.35;;
26488;SDS011;14169;43.684;10.484;2022-11-15T14:08:31;6.82;;;6.13;;
26488;SDS011;14169;43.684;10.484;2022-11-15T14:10:47;6.03;;;5.53;;
26488;SDS011;14169;43.684;10.484;2022-11-15T14:13:28;5.47;;;5.00;;
26488;SDS011;14169;43.684;10.484;2022-11-15T14:16:11;4.15;;;3.83;;
26488;SDS011;14169;43.684;10.484;2022-11-15T14:18:57;5.63;;;5.03;;
26488;SDS011;14169;43.684;10.484;2022-11-15T14:21:22;4.88;;;4.47;;
26488;SDS011;14169;43.684;10.484;2022-11-15T14:23:48;4.78;;;4.35;;
26488;SDS011;14169;43.684;10.484;2022-11-15T14:26:30;6.45;;;5.43;;
26488;SDS011;14169;43.684;10.484;2022-11-15T14:29:21;4.80;;;4.40;;
26488;SDS011;14169;43.684;10.484;2022-11-15T14:31:47;5.60;;;5.00;;
26488;SDS011;14169;43.684;10.484;2022-11-15T14:34:12;6.57;;;5.80;;
26488;SDS011;14169;43.684;10.484;2022-11-15T14:36:37;6.13;;;5.63;;
26488;SDS011;14169;43.684;10.484;2022-11-15T14:39:03;5.72;;;5.13;;
26488;SDS011;14169;43.684;10.484;2022-11-15T14:41:33;5.93;;;4.97;;
26488;SDS011;14169;43.684;10.484;2022-11-15T14:44:02;4.80;;;4.28;;
26488;SDS011;14169;43.684;10.484;2022-11-15T14:46:28;5.75;;;4.95;;
26488;SDS011;14169;43.684;10.484;2022-11-15T14:48:54;7.60;;;6.90;;
26488;SDS011;14169;43.684;10.484;2022-11-15T14:51:19;6.05;;;5.53;;
26488;SDS011;14169;43.684;10.484;2022-11-15T14:53:45;5.90;;;5.32;;
26488;SDS011;14169;43.684;10.484;2022-11-15T14:56:11;5.05;;;4.65;;
26488;SDS011;14169;43.684;10.484;2022-11-15T14:58:37;5.25;;;4.53;;
26488;SDS011;14169;43.684;10.484;2022-11-15T15:01:08;6.68;;;5.05;;
26488;SDS011;14169;43.684;10.484;2022-11-15T15:03:38;5.82;;;5.32;;
26488;SDS011;14169;43.684;10.484;2022-11-15T15:06:04;5.88;;;5.00;;
26488;SDS011;14169;43.684;10.484;2022-11-15T15:08:30;6.05;;;5.45;;
26488;SDS011;14169;43.684;10.484;2022-11-15T15:10:55;7.18;;;5.35;;
26488;SDS011;14169;43.684;10.484;2022-11-15T15:13:22;6.20;;;4.10;;
26488;SDS011;14169;43.684;10.484;2022-11-15T15:15:49;5.28;;;3.92;;
26488;SDS011;14169;43.684;10.484;2022-11-15T15:18:16;5.20;;;4.78;;
26488;SDS011;14169;43.684;10.484;2022-11-15T15:20:43;4.13;;;3.83;;
26488;SDS011;14169;43.684;10.484;2022-11-15T15:23:14;4.07;;;3.67;;
26488;SDS011;14169;43.684;10.484;2022-11-15T15:25:44;3.10;;;2.80;;
26488;SDS011;14169;43.684;10.484;2022-11-15T15:28:10;5.25;;;3.78;;
26488;SDS011;14169;43.684;10.484;2022-11-15T15:30:36;3.22;;;2.92;;
26488;SDS011;14169;43.684;10.484;2022-11-15T15:33:01;3.80;;;3.33;;
26488;SDS011;14169;43.684;10.484;2022-11-15T15:35:28;3.67;;;3.38;;
26488;SDS011;14169;43.684;10.484;2022-11-15T15:37:55;4.47;;;4.07;;
26488;SDS011;14169;43.684;10.484;2022-11-15T15:40:22;4.93;;;4.45;;
26488;SDS011;14169;43.684;10.484;2022-11-15T15:42:49;3.40;;;3.10;;
26488;SDS011;14169;43.684;10.484;2022-11-15T15:45:15;3.60;;;3.25;;
26488;SDS011;14169;43.684;10.484;2022-11-15T15:47:42;4.38;;;3.97;;
26488;SDS011;14169;43.684;10.484;2022-11-15T15:50:16;4.65;;;4.18;;
26488;SDS011;14169;43.684;10.484;2022-11-15T15:52:42;4.40;;;4.00;;
26488;SDS011;14169;43.684;10.484;2022-11-15T15:55:08;4.35;;;3.95;;
26488;SDS011;14169;43.684;10.484;2022-11-15T15:57:33;4.07;;;3.75;;
26488;SDS011;14169;43.684;10.484;2022-11-15T15:59:59;4.95;;;4.53;;
26488;SDS011;14169;43.684;10.484;2022-11-15T16:02:24;6.28;;;5.05;;
26488;SDS011;14169;43.684;10.484;2022-11-15T16:04:49;4.97;;;4.18;;
26488;SDS011;14169;43.684;10.484;2022-11-15T16:07:20;5.97;;;5.07;;
26488;SDS011;14169;43.684;10.484;2022-11-15T16:09:48;7.03;;;4.18;;
26488;SDS011;14169;43.684;10.484;2022-11-15T16:12:29;4.55;;;4.13;;
26488;SDS011;14169;43.684;10.484;2022-11-15T16:14:56;7.00;;;5.82;;
26488;SDS011;14169;43.684;10.484;2022-11-15T16:17:23;4.65;;;4.25;;
26488;SDS011;14169;43.684;10.484;2022-11-15T16:19:52;3.80;;;3.50;;
26488;SDS011;14169;43.684;10.484;2022-11-15T16:22:17;4.78;;;4.38;;
26488;SDS011;14169;43.684;10.484;2022-11-15T16:24:43;4.68;;;4.28;;
26488;SDS011;14169;43.684;10.484;2022-11-15T16:27:18;6.22;;;4.75;;
26488;SDS011;14169;43.684;10.484;2022-11-15T16:29:45;5.78;;;5.22;;
26488;SDS011;14169;43.684;10.484;2022-11-15T16:32:11;4.43;;;4.03;;
26488;SDS011;14169;43.684;10.484;2022-11-15T16:34:37;6.65;;;6.05;;
26488;SDS011;14169;43.684;10.484;2022-11-15T16:37:03;14.40;;;11.07;;
26488;SDS011;14169;43.684;10.484;2022-11-15T16:39:28;9.63;;;8.65;;
26488;SDS011;14169;43.684;10.484;2022-11-15T16:41:57;6.28;;;5.78;;
26488;SDS011;14169;43.684;10.484;2022-11-15T16:44:23;7.85;;;5.80;;
26488;SDS011;14169;43.684;10.484;2022-11-15T16:46:49;6.95;;;6.25;;
26488;SDS011;14169;43.684;10.484;2022-11-15T16:49:18;6.05;;;5.45;;
26488;SDS011;14169;43.684;10.484;2022-11-15T16:51:45;8.20;;;7.40;;
26488;SDS011;14169;43.684;10.484;2022-11-15T16:54:11;6.75;;;6.25;;
26488;SDS011;14169;43.684;10.484;2022-11-15T16:56:37;8.05;;;7.35;;
26488;SDS011;14169;43.684;10.484;2022-11-15T16:59:03;8.02;;;7.25;;
26488;SDS011;14169;43.684;10.484;2022-11-15T17:01:31;8.27;;;7.43;;
26488;SDS011;14169;43.684;10.484;2022-11-15T17:03:59;7.70;;;7.00;;